createdAt,value
2023-05-02T00:00:04.022Z,44.38
2023-05-02T00:03:06.418Z,44.39
2023-05-02T00:06:08.595Z,44.42
2023-05-02T00:09:10.195Z,44.53
2023-05-02T00:12:11.789Z,44.52
2023-05-02T00:15:13.399Z,44.55
2023-05-02T00:18:15.136Z,44.67
2023-05-02T00:21:16.676Z,44.64
2023-05-02T00:24:18.764Z,44.62
2023-05-02T00:27:20.542Z,44.63
2023-05-02T00:30:22.080Z,44.75
2023-05-02T00:33:23.616Z,44.74
2023-05-02T00:36:25.154Z,44.84
2023-05-02T00:39:26.767Z,44.78
2023-05-02T00:42:31.511Z,44.80
2023-05-02T00:45:33.127Z,44.95
2023-05-02T00:48:35.621Z,45.03
2023-05-02T00:51:37.335Z,45.07
2023-05-02T00:54:41.892Z,45.15
2023-05-02T00:57:43.704Z,45.20
2023-05-02T01:01:00.227Z,45.18
2023-05-02T01:04:11.332Z,45.35
2023-05-02T01:07:58.012Z,45.25
2023-05-02T01:11:15.259Z,45.34
2023-05-02T01:14:18.449Z,45.48
2023-05-02T01:17:23.037Z,45.48
2023-05-02T01:20:28.704Z,45.47
2023-05-02T01:23:30.257Z,45.56
2023-05-02T01:26:46.205Z,45.66
2023-05-02T01:29:51.323Z,45.78
2023-05-02T01:32:55.515Z,45.75
2023-05-02T01:35:57.957Z,45.91
2023-05-02T01:39:01.555Z,45.99
2023-05-02T01:42:05.241Z,45.93
2023-05-02T01:45:09.132Z,45.97
2023-05-02T01:48:11.896Z,46.22
2023-05-02T01:51:17.489Z,46.19
2023-05-02T01:54:23.032Z,46.27
2023-05-02T01:57:25.355Z,46.34
2023-05-02T02:00:29.428Z,46.44
2023-05-02T02:03:31.454Z,46.35
2023-05-02T02:06:34.260Z,46.53
2023-05-02T02:09:36.152Z,46.43
2023-05-02T02:12:51.143Z,46.43
2023-05-02T02:15:57.890Z,46.66
2023-05-02T02:19:06.039Z,46.49
2023-05-02T02:22:09.735Z,46.63
2023-05-02T02:25:14.555Z,46.66
2023-05-02T02:28:16.302Z,46.68
2023-05-02T02:31:17.903Z,46.58
2023-05-02T02:34:20.526Z,46.70
2023-05-02T02:37:45.835Z,46.79
2023-05-02T02:40:57.478Z,46.76
2023-05-02T02:44:12.930Z,46.90
2023-05-02T02:47:32.258Z,46.57
2023-05-02T02:50:43.884Z,46.82
2023-05-02T02:54:12.394Z,46.81
2023-05-02T02:57:58.098Z,46.92
2023-05-02T03:01:03.825Z,46.86
2023-05-02T03:04:07.588Z,46.93
2023-05-02T03:07:09.582Z,47.07
2023-05-02T03:10:11.952Z,47.05
2023-05-02T03:13:13.721Z,47.00
2023-05-02T03:16:39.892Z,47.03
2023-05-02T03:19:41.536Z,47.18
2023-05-02T03:22:43.221Z,47.09
2023-05-02T03:25:44.770Z,47.12
2023-05-02T03:28:46.977Z,46.99
2023-05-02T03:31:48.817Z,46.95
2023-05-02T03:34:50.420Z,47.02
2023-05-02T03:37:52.015Z,46.99
2023-05-02T03:40:57.273Z,46.83
2023-05-02T03:43:58.851Z,46.97
2023-05-02T03:47:00.514Z,47.10
2023-05-02T03:50:03.425Z,47.06
2023-05-02T03:53:04.977Z,47.07
2023-05-02T03:56:08.096Z,47.04
2023-05-02T03:59:09.942Z,47.09
2023-05-02T04:02:12.293Z,47.00
2023-05-02T04:05:13.893Z,46.97
2023-05-02T04:08:15.436Z,47.02
2023-05-02T04:11:17.023Z,47.03
2023-05-02T04:14:18.766Z,47.04
2023-05-02T04:17:21.499Z,46.92
2023-05-02T04:20:23.027Z,47.03
2023-05-02T04:23:24.597Z,47.08
2023-05-02T04:26:27.099Z,47.08
2023-05-02T04:29:28.743Z,46.96
2023-05-02T04:32:30.330Z,46.91
2023-05-02T04:35:31.951Z,47.05
2023-05-02T04:38:33.535Z,47.04
2023-05-02T04:41:35.153Z,46.85
2023-05-02T04:44:36.777Z,47.02
2023-05-02T04:47:38.359Z,47.09
2023-05-02T04:50:39.972Z,46.98
2023-05-02T04:53:41.839Z,47.07
2023-05-02T04:56:43.394Z,47.07
2023-05-02T04:59:45.322Z,46.99
2023-05-02T05:02:46.939Z,47.01
2023-05-02T05:05:48.693Z,47.00
2023-05-02T05:08:50.357Z,47.00
2023-05-02T05:11:51.915Z,47.13
2023-05-02T05:14:53.527Z,47.04
2023-05-02T05:17:55.133Z,47.11
2023-05-02T05:20:56.721Z,47.00
2023-05-02T05:23:58.311Z,46.93
2023-05-02T05:27:00.017Z,46.94
2023-05-02T05:30:02.328Z,47.09
2023-05-02T05:33:04.284Z,46.94
2023-05-02T05:36:11.281Z,46.95
2023-05-02T05:39:13.356Z,46.84
2023-05-02T05:42:14.899Z,46.83
2023-05-02T05:45:17.320Z,46.87
2023-05-02T05:48:18.936Z,46.95
2023-05-02T05:51:20.848Z,46.85
2023-05-02T05:54:22.567Z,46.81
2023-05-02T05:57:24.223Z,46.92
2023-05-02T06:00:25.771Z,46.75
2023-05-02T06:03:28.131Z,46.92
2023-05-02T06:06:30.160Z,46.79
2023-05-02T06:09:31.809Z,46.76
2023-05-02T06:12:33.817Z,46.81
2023-05-02T06:15:35.680Z,46.65
2023-05-02T06:18:38.504Z,46.80
2023-05-02T06:21:41.416Z,46.74
2023-05-02T06:24:44.147Z,46.63
2023-05-02T06:27:46.030Z,46.66
2023-05-02T06:30:47.587Z,46.63
2023-05-02T06:33:49.118Z,46.52
2023-05-02T06:36:55.738Z,46.47
2023-05-02T06:39:57.354Z,46.52
2023-05-02T06:42:58.943Z,46.50
2023-05-02T06:46:01.070Z,46.46
2023-05-02T06:49:02.659Z,46.50
2023-05-02T06:52:04.269Z,46.38
2023-05-02T06:55:06.344Z,46.38
2023-05-02T06:58:08.358Z,46.30
2023-05-02T07:01:10.120Z,46.31
2023-05-02T07:04:11.802Z,46.24
2023-05-02T07:07:13.797Z,46.38
2023-05-02T07:10:15.383Z,46.19
2023-05-02T07:13:16.920Z,46.07
2023-05-02T07:16:18.508Z,46.06
2023-05-02T07:19:20.145Z,46.03
2023-05-02T07:22:21.715Z,46.05
2023-05-02T07:25:23.290Z,46.13
2023-05-02T07:28:24.946Z,46.00
2023-05-02T07:31:26.595Z,46.00
2023-05-02T07:34:28.163Z,45.98
2023-05-02T07:37:34.705Z,45.99
2023-05-02T07:40:36.415Z,45.97
2023-05-02T07:43:38.007Z,46.04
2023-05-02T07:46:39.678Z,45.85
2023-05-02T07:49:41.577Z,45.96
2023-05-02T07:52:43.445Z,45.97
2023-05-02T07:55:45.268Z,45.84
2023-05-02T07:58:46.826Z,46.16
2023-05-02T08:01:48.434Z,46.04
2023-05-02T08:04:51.207Z,46.10
2023-05-02T08:07:52.976Z,45.94
2023-05-02T08:10:54.563Z,46.13
2023-05-02T08:13:56.318Z,46.08
2023-05-02T08:16:58.658Z,45.90
2023-05-02T08:20:03.768Z,45.86
2023-05-02T08:23:05.354Z,45.90
2023-05-02T08:26:07.051Z,45.92
2023-05-02T08:29:11.577Z,45.93
2023-05-02T08:32:13.309Z,45.88
2023-05-02T08:35:15.034Z,45.88
2023-05-02T08:38:17.488Z,45.78
2023-05-02T08:41:19.723Z,45.74
2023-05-02T08:44:21.366Z,45.58
2023-05-02T08:47:25.603Z,45.64
2023-05-02T08:50:28.387Z,45.42
2023-05-02T08:53:32.711Z,45.29
2023-05-02T08:56:34.263Z,45.46
2023-05-02T08:59:35.969Z,45.37
2023-05-02T09:03:01.897Z,45.24
2023-05-02T09:06:21.114Z,45.18
2023-05-02T09:09:23.101Z,45.23
2023-05-02T09:12:27.307Z,45.19
2023-05-02T09:15:33.118Z,45.24
2023-05-02T09:18:42.064Z,45.20
2023-05-02T09:21:45.020Z,45.14
2023-05-02T09:24:55.726Z,45.05
2023-05-02T09:27:58.989Z,45.17
2023-05-02T09:31:08.419Z,45.17
2023-05-02T09:34:18.984Z,45.13
2023-05-02T09:37:37.150Z,45.16
2023-05-02T09:40:39.628Z,45.21
2023-05-02T09:43:42.920Z,45.15
2023-05-02T09:46:47.513Z,45.31
2023-05-02T09:49:50.518Z,45.22
2023-05-02T09:53:06.516Z,45.13
2023-05-02T09:56:08.461Z,45.02
2023-05-02T09:59:17.156Z,45.13
2023-05-02T10:02:21.930Z,45.11
2023-05-02T10:05:23.787Z,45.00
2023-05-02T10:08:27.663Z,44.89
2023-05-02T10:11:32.024Z,44.91
2023-05-02T10:14:39.930Z,44.78
2023-05-02T10:17:46.638Z,44.97
2023-05-02T10:20:56.753Z,45.11
2023-05-02T10:23:59.265Z,45.13
2023-05-02T10:27:02.498Z,45.13
2023-05-02T10:30:06.718Z,45.28
2023-05-02T10:33:08.539Z,45.11
2023-05-02T10:36:14.600Z,44.94
2023-05-02T10:39:16.496Z,44.93
2023-05-02T10:42:20.745Z,44.85
2023-05-02T10:45:35.450Z,45.00
2023-05-02T10:48:38.568Z,44.86
2023-05-02T10:51:42.072Z,44.88
2023-05-02T10:54:43.758Z,44.72
2023-05-02T10:57:57.453Z,44.78
2023-05-02T11:01:25.053Z,44.94
2023-05-02T11:04:46.729Z,44.89
2023-05-02T11:07:48.458Z,44.74
2023-05-02T11:10:50.069Z,44.58
2023-05-02T11:13:51.696Z,44.53
2023-05-02T11:16:59.883Z,44.57
2023-05-02T11:20:01.781Z,44.52
2023-05-02T11:23:16.023Z,44.27
2023-05-02T11:26:23.196Z,44.62
2023-05-02T11:29:54.620Z,44.77
2023-05-02T11:32:59.321Z,44.79
2023-05-02T11:36:01.741Z,44.98
2023-05-02T11:39:05.894Z,44.88
2023-05-02T11:42:07.663Z,44.93
2023-05-02T11:45:10.164Z,44.97
2023-05-02T11:48:16.500Z,44.89
2023-05-02T11:51:23.115Z,44.81
2023-05-02T11:54:24.803Z,44.82
2023-05-02T11:57:26.482Z,44.98
2023-05-02T12:00:28.741Z,44.83
2023-05-02T12:03:32.517Z,44.77
2023-05-02T12:06:34.873Z,44.83
2023-05-02T12:09:36.617Z,44.68
2023-05-02T12:12:39.877Z,44.73
2023-05-02T12:15:42.139Z,44.63
2023-05-02T12:18:44.125Z,44.58
2023-05-02T12:21:46.200Z,44.65
2023-05-02T12:24:49.288Z,44.63
2023-05-02T12:28:03.609Z,44.56
2023-05-02T12:31:11.493Z,44.57
2023-05-02T12:34:13.179Z,44.58
2023-05-02T12:37:23.024Z,44.47
2023-05-02T12:40:24.620Z,44.44
2023-05-02T12:43:26.239Z,44.60
2023-05-02T12:46:31.798Z,44.61
2023-05-02T12:49:48.510Z,44.41
2023-05-02T12:52:57.562Z,44.36
2023-05-02T12:56:03.908Z,44.47
2023-05-02T12:59:05.847Z,44.34
2023-05-02T13:02:07.764Z,44.22
2023-05-02T13:05:19.141Z,44.25
2023-05-02T13:08:20.802Z,44.20
2023-05-02T13:11:22.359Z,44.19
2023-05-02T13:14:23.909Z,44.19
2023-05-02T13:17:25.763Z,44.16
2023-05-02T13:20:27.359Z,44.03
2023-05-02T13:23:28.897Z,44.02
2023-05-02T13:26:30.579Z,44.04
2023-05-02T13:29:32.147Z,44.16
2023-05-02T13:32:33.811Z,43.90
2023-05-02T13:35:35.755Z,44.04
2023-05-02T13:38:37.290Z,44.11
2023-05-02T13:41:39.358Z,44.10
2023-05-02T13:44:41.085Z,44.09
2023-05-02T13:47:42.700Z,44.13
2023-05-02T13:50:44.324Z,44.00
2023-05-02T13:53:45.859Z,44.08
2023-05-02T13:56:47.420Z,44.04
2023-05-02T13:59:48.975Z,44.01
2023-05-02T14:02:50.672Z,43.94
2023-05-02T14:05:52.357Z,43.96
2023-05-02T14:08:53.973Z,43.98
2023-05-02T14:11:55.890Z,44.16
2023-05-02T14:14:57.455Z,44.01
2023-05-02T14:17:59.036Z,44.05
2023-05-02T14:21:01.126Z,43.93
2023-05-02T14:24:02.671Z,44.04
2023-05-02T14:27:04.839Z,43.91
2023-05-02T14:30:07.383Z,43.91
2023-05-02T14:33:08.993Z,43.87
2023-05-02T14:36:10.669Z,43.96
2023-05-02T14:39:12.452Z,43.85
2023-05-02T14:42:14.054Z,43.90
2023-05-02T14:45:15.836Z,43.93
2023-05-02T14:48:17.586Z,43.90
2023-05-02T14:51:19.259Z,43.87
2023-05-02T14:54:22.953Z,44.01
2023-05-02T14:57:24.631Z,43.90
2023-05-02T15:00:26.409Z,43.96
2023-05-02T15:03:28.354Z,43.91
2023-05-02T15:06:34.213Z,43.86
2023-05-02T15:09:36.510Z,43.84
2023-05-02T15:12:38.229Z,43.85
2023-05-02T15:15:39.979Z,44.01
2023-05-02T15:18:41.489Z,43.85
2023-05-02T15:21:43.110Z,43.93
2023-05-02T15:24:44.705Z,44.11
2023-05-02T15:27:46.328Z,43.96
2023-05-02T15:30:49.132Z,43.84
2023-05-02T15:33:51.477Z,43.88
2023-05-02T15:36:53.189Z,43.95
2023-05-02T15:39:54.831Z,43.86
2023-05-02T15:42:56.468Z,43.84
2023-05-02T15:45:59.051Z,43.89
2023-05-02T15:49:00.706Z,43.80
2023-05-02T15:52:03.024Z,43.71
2023-05-02T15:55:05.207Z,43.71
2023-05-02T15:58:07.051Z,43.85
2023-05-02T16:01:08.714Z,43.62
2023-05-02T16:04:10.342Z,43.66
2023-05-02T16:07:11.950Z,43.68
2023-05-02T16:10:13.520Z,43.68
2023-05-02T16:13:15.335Z,43.71
2023-05-02T16:16:16.976Z,43.58
2023-05-02T16:19:19.253Z,43.58
2023-05-02T16:22:20.845Z,43.59
2023-05-02T16:25:22.470Z,43.66
2023-05-02T16:28:24.270Z,43.62
2023-05-02T16:31:26.135Z,43.77
2023-05-02T16:34:32.924Z,43.63
2023-05-02T16:37:35.392Z,43.72
2023-05-02T16:40:37.034Z,43.71
2023-05-02T16:43:38.734Z,43.62
2023-05-02T16:46:41.475Z,43.65
2023-05-02T16:49:43.057Z,43.52
2023-05-02T16:52:44.608Z,43.62
2023-05-02T16:55:46.145Z,43.59
2023-05-02T16:58:47.696Z,43.74
2023-05-02T17:01:50.126Z,43.60
2023-05-02T17:04:51.844Z,43.69
2023-05-02T17:07:53.396Z,43.68
2023-05-02T17:10:56.243Z,43.64
2023-05-02T17:13:57.796Z,43.62
2023-05-02T17:17:00.820Z,43.79
2023-05-02T17:20:03.033Z,43.68
2023-05-02T17:23:05.546Z,43.60
2023-05-02T17:26:14.179Z,43.61
2023-05-02T17:29:15.903Z,43.67
2023-05-02T17:32:17.453Z,43.66
2023-05-02T17:35:18.995Z,43.72
2023-05-02T17:38:20.558Z,43.68
2023-05-02T17:41:22.450Z,43.68
2023-05-02T17:44:24.030Z,43.68
2023-05-02T17:47:25.794Z,43.63
2023-05-02T17:50:27.413Z,43.57
2023-05-02T17:53:29.280Z,43.68
2023-05-02T17:56:30.839Z,43.65
2023-05-02T17:59:32.392Z,43.60
2023-05-02T18:02:36.620Z,43.58
2023-05-02T18:05:44.164Z,43.63
2023-05-02T18:08:46.011Z,43.54
2023-05-02T18:11:48.642Z,43.72
2023-05-02T18:14:52.567Z,43.54
2023-05-02T18:17:56.724Z,43.65
2023-05-02T18:20:58.854Z,43.70
2023-05-02T18:24:01.520Z,43.67
2023-05-02T18:27:03.234Z,43.67
2023-05-02T18:30:05.840Z,43.65
2023-05-02T18:33:08.201Z,43.64
2023-05-02T18:36:09.828Z,43.70
2023-05-02T18:39:11.489Z,43.77
2023-05-02T18:42:13.159Z,43.67
2023-05-02T18:45:14.999Z,43.68
2023-05-02T18:48:16.600Z,43.77
2023-05-02T18:51:18.459Z,43.87
2023-05-02T18:54:20.244Z,43.74
2023-05-02T18:57:21.968Z,43.62
2023-05-02T19:00:24.459Z,43.75
2023-05-02T19:03:26.893Z,43.68
2023-05-02T19:06:29.487Z,43.55
2023-05-02T19:09:31.155Z,43.60
2023-05-02T19:12:32.743Z,43.77
2023-05-02T19:15:34.339Z,43.75
2023-05-02T19:18:35.906Z,43.71
2023-05-02T19:21:37.569Z,43.79
2023-05-02T19:24:39.178Z,43.73
2023-05-02T19:27:42.202Z,43.85
2023-05-02T19:30:44.828Z,43.66
2023-05-02T19:33:51.665Z,43.77
2023-05-02T19:36:53.296Z,43.70
2023-05-02T19:39:54.906Z,43.64
2023-05-02T19:42:56.465Z,43.90
2023-05-02T19:45:58.890Z,43.78
2023-05-02T19:49:00.601Z,43.71
2023-05-02T19:52:02.766Z,43.87
2023-05-02T19:55:04.888Z,43.80
2023-05-02T19:58:06.540Z,43.75
2023-05-02T20:01:08.218Z,43.68
2023-05-02T20:04:09.820Z,43.79
2023-05-02T20:07:11.365Z,43.88
2023-05-02T20:10:13.164Z,43.78
2023-05-02T20:13:15.371Z,43.80
2023-05-02T20:16:17.057Z,43.80
2023-05-02T20:19:19.990Z,43.76
2023-05-02T20:22:23.041Z,43.70
2023-05-02T20:25:25.119Z,44.03
2023-05-02T20:28:26.768Z,43.90
2023-05-02T20:31:28.337Z,43.99
2023-05-02T20:34:30.215Z,44.05
2023-05-02T20:37:32.341Z,44.02
2023-05-02T20:40:34.026Z,43.95
2023-05-02T20:43:36.266Z,43.94
2023-05-02T20:46:38.155Z,43.84
2023-05-02T20:49:39.887Z,43.89
2023-05-02T20:52:41.593Z,44.03
2023-05-02T20:55:43.206Z,43.94
2023-05-02T20:58:44.732Z,44.07
2023-05-02T21:01:47.657Z,44.07
2023-05-02T21:04:49.230Z,44.00
2023-05-02T21:07:50.807Z,44.20
2023-05-02T21:10:53.211Z,43.86
2023-05-02T21:13:54.766Z,44.04
2023-05-02T21:16:56.554Z,43.96
2023-05-02T21:19:59.868Z,44.14
2023-05-02T21:23:03.238Z,44.06
2023-05-02T21:26:06.908Z,44.10
2023-05-02T21:29:10.753Z,44.01
2023-05-02T21:32:12.941Z,44.14
2023-05-02T21:35:14.691Z,44.24
2023-05-02T21:38:16.239Z,44.01
2023-05-02T21:41:17.829Z,44.18
2023-05-02T21:44:19.771Z,44.21
2023-05-02T21:47:21.634Z,44.20
2023-05-02T21:50:23.802Z,44.12
2023-05-02T21:53:27.095Z,44.28
2023-05-02T21:56:28.633Z,44.24
2023-05-02T21:59:30.129Z,44.13
2023-05-02T22:02:31.825Z,44.28
2023-05-02T22:05:39.915Z,44.53
2023-05-02T22:08:41.643Z,44.46
2023-05-02T22:11:43.380Z,44.35
2023-05-02T22:14:45.984Z,44.55
2023-05-02T22:17:48.376Z,44.45
2023-05-02T22:20:49.996Z,44.41
2023-05-02T22:23:51.638Z,44.83
2023-05-02T22:26:55.360Z,44.59
2023-05-02T22:29:57.149Z,44.50
2023-05-02T22:32:58.832Z,44.71
2023-05-02T22:36:00.431Z,44.50
2023-05-02T22:39:01.987Z,44.53
2023-05-02T22:42:03.637Z,44.70
2023-05-02T22:45:07.647Z,44.78
2023-05-02T22:48:09.362Z,44.70
2023-05-02T22:51:11.029Z,44.76
2023-05-02T22:54:14.982Z,44.97
2023-05-02T22:57:16.539Z,44.97
2023-05-02T23:00:18.118Z,45.00
2023-05-02T23:03:19.933Z,45.01
2023-05-02T23:06:21.611Z,45.00
2023-05-02T23:09:23.248Z,44.96
2023-05-02T23:12:24.777Z,45.09
2023-05-02T23:15:26.655Z,45.16
2023-05-02T23:18:28.249Z,45.02
2023-05-02T23:21:29.861Z,45.14
2023-05-02T23:24:31.778Z,45.17
2023-05-02T23:27:33.365Z,45.21
2023-05-02T23:30:37.920Z,45.29
2023-05-02T23:33:40.471Z,45.22
2023-05-02T23:36:42.225Z,45.33
2023-05-02T23:39:43.853Z,45.29
2023-05-02T23:42:46.022Z,45.24
2023-05-02T23:45:47.742Z,45.27
2023-05-02T23:48:49.281Z,45.19
2023-05-02T23:51:50.855Z,45.36
2023-05-02T23:54:52.727Z,45.28
2023-05-02T23:57:54.367Z,45.44
